sensor_id;sensor_type;location;lat;lon;timestamp;P1;durP1;ratioP1;P2;durP2;ratioP2
16954;SDS011;8594;52.052;8.354;2022-11-18T00:01:16;17.63;;;8.43;;
16954;SDS011;8594;52.052;8.354;2022-11-18T00:03:47;13.23;;;7.67;;
16954;SDS011;8594;52.052;8.354;2022-11-18T00:06:15;14.23;;;7.80;;
16954;SDS011;8594;52.052;8.354;2022-11-18T00:08:45;13.30;;;8.37;;
16954;SDS011;8594;52.052;8.354;2022-11-18T00:11:14;11.77;;;7.90;;
16954;SDS011;8594;52.052;8.354;2022-11-18T00:13:57;16.70;;;9.77;;
16954;SDS011;8594;52.052;8.354;2022-11-18T00:16:42;15.07;;;8.30;;
16954;SDS011;8594;52.052;8.354;2022-11-18T00:19:09;12.83;;;8.00;;
16954;SDS011;8594;52.052;8.354;2022-11-18T00:21:36;12.97;;;8.07;;
16954;SDS011;8594;52.052;8.354;2022-11-18T00:24:03;13.23;;;8.57;;
16954;SDS011;8594;52.052;8.354;2022-11-18T00:26:32;16.83;;;8.57;;
16954;SDS011;8594;52.052;8.354;2022-11-18T00:29:00;15.03;;;8.37;;
16954;SDS011;8594;52.052;8.354;2022-11-18T00:31:27;11.73;;;8.40;;
16954;SDS011;8594;52.052;8.354;2022-11-18T00:33:54;17.03;;;9.93;;
16954;SDS011;8594;52.052;8.354;2022-11-18T00:36:21;15.73;;;8.87;;
16954;SDS011;8594;52.052;8.354;2022-11-18T00:38:48;14.33;;;8.40;;
16954;SDS011;8594;52.052;8.354;2022-11-18T00:41:15;17.53;;;9.37;;
16954;SDS011;8594;52.052;8.354;2022-11-18T00:43:43;16.03;;;8.50;;
16954;SDS011;8594;52.052;8.354;2022-11-18T00:46:10;14.53;;;9.43;;
16954;SDS011;8594;52.052;8.354;2022-11-18T00:48:38;15.07;;;9.23;;
16954;SDS011;8594;52.052;8.354;2022-11-18T00:51:07;17.03;;;10.73;;
16954;SDS011;8594;52.052;8.354;2022-11-18T00:53:36;15.53;;;9.80;;
16954;SDS011;8594;52.052;8.354;2022-11-18T00:56:03;19.53;;;10.30;;
16954;SDS011;8594;52.052;8.354;2022-11-18T00:58:31;20.70;;;10.90;;
16954;SDS011;8594;52.052;8.354;2022-11-18T01:01:00;17.70;;;9.80;;
16954;SDS011;8594;52.052;8.354;2022-11-18T01:03:27;18.73;;;10.13;;
16954;SDS011;8594;52.052;8.354;2022-11-18T01:05:55;18.60;;;10.10;;
16954;SDS011;8594;52.052;8.354;2022-11-18T01:08:22;19.87;;;10.27;;
16954;SDS011;8594;52.052;8.354;2022-11-18T01:10:50;17.17;;;10.30;;
16954;SDS011;8594;52.052;8.354;2022-11-18T01:13:18;18.33;;;11.40;;
16954;SDS011;8594;52.052;8.354;2022-11-18T01:15:47;22.20;;;11.53;;
16954;SDS011;8594;52.052;8.354;2022-11-18T01:18:18;26.17;;;12.23;;
16954;SDS011;8594;52.052;8.354;2022-11-18T01:20:48;17.47;;;10.97;;
16954;SDS011;8594;52.052;8.354;2022-11-18T01:23:15;22.43;;;11.93;;
16954;SDS011;8594;52.052;8.354;2022-11-18T01:25:45;21.67;;;12.77;;
16954;SDS011;8594;52.052;8.354;2022-11-18T01:28:14;35.63;;;13.90;;
16954;SDS011;8594;52.052;8.354;2022-11-18T01:30:42;27.33;;;14.47;;
16954;SDS011;8594;52.052;8.354;2022-11-18T01:33:10;27.20;;;13.37;;
16954;SDS011;8594;52.052;8.354;2022-11-18T01:35:40;27.30;;;14.30;;
16954;SDS011;8594;52.052;8.354;2022-11-18T01:38:09;26.17;;;14.43;;
16954;SDS011;8594;52.052;8.354;2022-11-18T01:40:38;23.80;;;13.80;;
16954;SDS011;8594;52.052;8.354;2022-11-18T01:43:08;26.53;;;14.53;;
16954;SDS011;8594;52.052;8.354;2022-11-18T01:45:38;29.83;;;15.23;;
16954;SDS011;8594;52.052;8.354;2022-11-18T01:48:07;28.63;;;15.43;;
16954;SDS011;8594;52.052;8.354;2022-11-18T01:50:43;30.13;;;14.40;;
16954;SDS011;8594;52.052;8.354;2022-11-18T01:53:16;27.50;;;14.83;;
16954;SDS011;8594;52.052;8.354;2022-11-18T01:55:48;27.97;;;14.97;;
16954;SDS011;8594;52.052;8.354;2022-11-18T01:58:20;25.83;;;14.20;;
16954;SDS011;8594;52.052;8.354;2022-11-18T02:00:52;25.70;;;14.00;;
16954;SDS011;8594;52.052;8.354;2022-11-18T02:03:20;24.13;;;14.00;;
16954;SDS011;8594;52.052;8.354;2022-11-18T02:05:49;23.87;;;14.13;;
16954;SDS011;8594;52.052;8.354;2022-11-18T02:08:19;26.03;;;14.37;;
16954;SDS011;8594;52.052;8.354;2022-11-18T02:10:48;26.13;;;14.80;;
16954;SDS011;8594;52.052;8.354;2022-11-18T02:13:14;29.20;;;15.10;;
16954;SDS011;8594;52.052;8.354;2022-11-18T02:15:45;31.30;;;15.87;;
16954;SDS011;8594;52.052;8.354;2022-11-18T02:18:27;26.70;;;14.83;;
16954;SDS011;8594;52.052;8.354;2022-11-18T02:21:10;30.73;;;15.43;;
16954;SDS011;8594;52.052;8.354;2022-11-18T02:24:06;29.80;;;15.77;;
16954;SDS011;8594;52.052;8.354;2022-11-18T02:27:02;29.43;;;16.00;;
16954;SDS011;8594;52.052;8.354;2022-11-18T02:30:11;40.13;;;17.40;;
16954;SDS011;8594;52.052;8.354;2022-11-18T02:32:42;38.33;;;17.73;;
16954;SDS011;8594;52.052;8.354;2022-11-18T02:35:19;37.30;;;17.90;;
16954;SDS011;8594;52.052;8.354;2022-11-18T02:37:54;37.67;;;18.00;;
16954;SDS011;8594;52.052;8.354;2022-11-18T02:40:26;41.13;;;19.60;;
16954;SDS011;8594;52.052;8.354;2022-11-18T02:42:59;42.53;;;18.93;;
16954;SDS011;8594;52.052;8.354;2022-11-18T02:45:34;50.33;;;19.67;;
16954;SDS011;8594;52.052;8.354;2022-11-18T02:48:07;43.67;;;20.77;;
16954;SDS011;8594;52.052;8.354;2022-11-18T02:50:38;46.67;;;21.27;;
16954;SDS011;8594;52.052;8.354;2022-11-18T02:53:09;46.27;;;21.30;;
16954;SDS011;8594;52.052;8.354;2022-11-18T02:55:40;48.20;;;21.07;;
16954;SDS011;8594;52.052;8.354;2022-11-18T02:58:09;49.27;;;20.57;;
16954;SDS011;8594;52.052;8.354;2022-11-18T03:00:40;44.97;;;19.83;;
16954;SDS011;8594;52.052;8.354;2022-11-18T03:03:20;47.13;;;20.37;;
16954;SDS011;8594;52.052;8.354;2022-11-18T03:05:54;48.80;;;20.33;;
16954;SDS011;8594;52.052;8.354;2022-11-18T03:08:36;43.40;;;19.57;;
16954;SDS011;8594;52.052;8.354;2022-11-18T03:11:10;45.27;;;20.10;;
16954;SDS011;8594;52.052;8.354;2022-11-18T03:13:46;49.60;;;22.07;;
16954;SDS011;8594;52.052;8.354;2022-11-18T03:16:34;51.47;;;20.47;;
16954;SDS011;8594;52.052;8.354;2022-11-18T03:19:06;54.10;;;21.17;;
16954;SDS011;8594;52.052;8.354;2022-11-18T03:21:44;56.60;;;21.10;;
16954;SDS011;8594;52.052;8.354;2022-11-18T03:24:24;49.77;;;20.77;;
16954;SDS011;8594;52.052;8.354;2022-11-18T03:26:58;48.10;;;20.20;;
16954;SDS011;8594;52.052;8.354;2022-11-18T03:29:37;47.17;;;19.13;;
16954;SDS011;8594;52.052;8.354;2022-11-18T03:32:11;48.60;;;19.87;;
16954;SDS011;8594;52.052;8.354;2022-11-18T03:34:44;48.33;;;20.53;;
16954;SDS011;8594;52.052;8.354;2022-11-18T03:37:16;45.80;;;19.30;;
16954;SDS011;8594;52.052;8.354;2022-11-18T03:39:48;49.03;;;20.90;;
16954;SDS011;8594;52.052;8.354;2022-11-18T03:42:21;48.23;;;19.73;;
16954;SDS011;8594;52.052;8.354;2022-11-18T03:44:54;43.53;;;18.47;;
16954;SDS011;8594;52.052;8.354;2022-11-18T03:47:30;47.27;;;19.00;;
16954;SDS011;8594;52.052;8.354;2022-11-18T03:50:05;48.03;;;18.77;;
16954;SDS011;8594;52.052;8.354;2022-11-18T03:52:39;38.43;;;17.17;;
16954;SDS011;8594;52.052;8.354;2022-11-18T03:55:08;40.23;;;17.37;;
16954;SDS011;8594;52.052;8.354;2022-11-18T03:57:43;37.83;;;18.77;;
16954;SDS011;8594;52.052;8.354;2022-11-18T04:00:18;37.30;;;16.97;;
16954;SDS011;8594;52.052;8.354;2022-11-18T04:02:47;39.50;;;17.20;;
16954;SDS011;8594;52.052;8.354;2022-11-18T04:05:15;34.10;;;15.77;;
16954;SDS011;8594;52.052;8.354;2022-11-18T04:07:48;34.30;;;15.47;;
16954;SDS011;8594;52.052;8.354;2022-11-18T04:10:22;29.87;;;15.17;;
16954;SDS011;8594;52.052;8.354;2022-11-18T04:12:56;34.13;;;15.90;;
16954;SDS011;8594;52.052;8.354;2022-11-18T04:15:30;34.20;;;16.77;;
16954;SDS011;8594;52.052;8.354;2022-11-18T04:17:59;33.73;;;15.30;;
16954;SDS011;8594;52.052;8.354;2022-11-18T04:20:26;31.57;;;15.47;;
16954;SDS011;8594;52.052;8.354;2022-11-18T04:22:55;37.77;;;15.93;;
16954;SDS011;8594;52.052;8.354;2022-11-18T04:25:22;30.10;;;14.07;;
16954;SDS011;8594;52.052;8.354;2022-11-18T04:27:49;26.10;;;13.93;;
16954;SDS011;8594;52.052;8.354;2022-11-18T04:30:17;32.07;;;14.97;;
16954;SDS011;8594;52.052;8.354;2022-11-18T04:32:44;28.93;;;14.77;;
16954;SDS011;8594;52.052;8.354;2022-11-18T04:35:13;31.40;;;15.00;;
16954;SDS011;8594;52.052;8.354;2022-11-18T04:37:41;31.70;;;15.07;;
16954;SDS011;8594;52.052;8.354;2022-11-18T04:40:08;31.10;;;13.70;;
16954;SDS011;8594;52.052;8.354;2022-11-18T04:42:36;28.73;;;14.07;;
16954;SDS011;8594;52.052;8.354;2022-11-18T04:45:04;31.97;;;15.03;;
16954;SDS011;8594;52.052;8.354;2022-11-18T04:47:32;34.20;;;15.57;;
16954;SDS011;8594;52.052;8.354;2022-11-18T04:50:00;32.57;;;14.87;;
16954;SDS011;8594;52.052;8.354;2022-11-18T04:52:29;33.30;;;15.40;;
16954;SDS011;8594;52.052;8.354;2022-11-18T04:54:56;28.93;;;14.67;;
16954;SDS011;8594;52.052;8.354;2022-11-18T04:57:23;37.13;;;17.07;;
16954;SDS011;8594;52.052;8.354;2022-11-18T04:59:50;38.20;;;17.20;;
16954;SDS011;8594;52.052;8.354;2022-11-18T05:02:17;33.63;;;15.67;;
16954;SDS011;8594;52.052;8.354;2022-11-18T05:04:44;37.47;;;17.07;;
16954;SDS011;8594;52.052;8.354;2022-11-18T05:07:12;42.13;;;17.63;;
16954;SDS011;8594;52.052;8.354;2022-11-18T05:09:42;36.87;;;17.37;;
16954;SDS011;8594;52.052;8.354;2022-11-18T05:12:10;41.60;;;17.60;;
16954;SDS011;8594;52.052;8.354;2022-11-18T05:14:56;40.27;;;17.53;;
16954;SDS011;8594;52.052;8.354;2022-11-18T05:17:23;46.47;;;18.50;;
16954;SDS011;8594;52.052;8.354;2022-11-18T05:19:50;42.20;;;19.10;;
16954;SDS011;8594;52.052;8.354;2022-11-18T05:22:17;49.20;;;20.20;;
16954;SDS011;8594;52.052;8.354;2022-11-18T05:24:46;47.97;;;20.13;;
16954;SDS011;8594;52.052;8.354;2022-11-18T05:27:13;59.30;;;22.53;;
16954;SDS011;8594;52.052;8.354;2022-11-18T05:29:40;59.67;;;22.37;;
16954;SDS011;8594;52.052;8.354;2022-11-18T05:32:07;59.50;;;22.77;;
16954;SDS011;8594;52.052;8.354;2022-11-18T05:34:34;61.30;;;23.13;;
16954;SDS011;8594;52.052;8.354;2022-11-18T05:37:02;69.43;;;24.83;;
16954;SDS011;8594;52.052;8.354;2022-11-18T05:39:29;66.87;;;25.07;;
16954;SDS011;8594;52.052;8.354;2022-11-18T05:41:59;66.40;;;23.87;;
16954;SDS011;8594;52.052;8.354;2022-11-18T05:44:44;66.20;;;23.73;;
16954;SDS011;8594;52.052;8.354;2022-11-18T05:47:11;68.03;;;24.43;;
16954;SDS011;8594;52.052;8.354;2022-11-18T05:49:38;67.37;;;23.37;;
16954;SDS011;8594;52.052;8.354;2022-11-18T05:52:05;73.20;;;24.47;;
16954;SDS011;8594;52.052;8.354;2022-11-18T05:54:32;81.87;;;24.57;;
16954;SDS011;8594;52.052;8.354;2022-11-18T05:57:01;81.17;;;25.17;;
16954;SDS011;8594;52.052;8.354;2022-11-18T05:59:28;71.67;;;23.60;;
16954;SDS011;8594;52.052;8.354;2022-11-18T06:01:56;78.00;;;23.17;;
16954;SDS011;8594;52.052;8.354;2022-11-18T06:04:27;80.70;;;29.20;;
16954;SDS011;8594;52.052;8.354;2022-11-18T06:07:01;71.83;;;25.00;;
16954;SDS011;8594;52.052;8.354;2022-11-18T06:09:33;69.63;;;24.00;;
16954;SDS011;8594;52.052;8.354;2022-11-18T06:12:06;67.60;;;23.20;;
16954;SDS011;8594;52.052;8.354;2022-11-18T06:14:35;70.73;;;22.47;;
16954;SDS011;8594;52.052;8.354;2022-11-18T06:17:09;71.50;;;23.17;;
16954;SDS011;8594;52.052;8.354;2022-11-18T06:19:42;67.00;;;24.00;;
16954;SDS011;8594;52.052;8.354;2022-11-18T06:22:10;66.73;;;22.67;;
16954;SDS011;8594;52.052;8.354;2022-11-18T06:24:37;72.23;;;22.80;;
16954;SDS011;8594;52.052;8.354;2022-11-18T06:27:06;65.07;;;23.93;;
16954;SDS011;8594;52.052;8.354;2022-11-18T06:29:33;78.77;;;24.73;;
16954;SDS011;8594;52.052;8.354;2022-11-18T06:32:00;69.57;;;23.70;;
16954;SDS011;8594;52.052;8.354;2022-11-18T06:34:27;72.00;;;25.17;;
16954;SDS011;8594;52.052;8.354;2022-11-18T06:36:54;69.23;;;23.93;;
16954;SDS011;8594;52.052;8.354;2022-11-18T06:39:21;61.63;;;22.93;;
16954;SDS011;8594;52.052;8.354;2022-11-18T06:41:51;66.50;;;23.60;;
16954;SDS011;8594;52.052;8.354;2022-11-18T06:44:19;65.73;;;24.97;;
16954;SDS011;8594;52.052;8.354;2022-11-18T06:46:45;66.27;;;23.00;;
16954;SDS011;8594;52.052;8.354;2022-11-18T06:49:22;69.93;;;23.33;;
16954;SDS011;8594;52.052;8.354;2022-11-18T06:51:50;64.83;;;22.77;;
16954;SDS011;8594;52.052;8.354;2022-11-18T06:54:17;56.23;;;21.60;;
16954;SDS011;8594;52.052;8.354;2022-11-18T06:56:45;60.47;;;23.37;;
16954;SDS011;8594;52.052;8.354;2022-11-18T06:59:12;58.03;;;22.57;;
16954;SDS011;8594;52.052;8.354;2022-11-18T07:01:47;62.23;;;21.37;;
16954;SDS011;8594;52.052;8.354;2022-11-18T07:04:14;59.77;;;21.90;;
16954;SDS011;8594;52.052;8.354;2022-11-18T07:06:41;60.40;;;21.77;;
16954;SDS011;8594;52.052;8.354;2022-11-18T07:09:10;57.43;;;21.67;;
16954;SDS011;8594;52.052;8.354;2022-11-18T07:11:37;59.17;;;21.77;;
16954;SDS011;8594;52.052;8.354;2022-11-18T07:14:05;57.77;;;23.17;;
16954;SDS011;8594;52.052;8.354;2022-11-18T07:16:32;65.57;;;22.00;;
16954;SDS011;8594;52.052;8.354;2022-11-18T07:19:06;70.40;;;23.07;;
16954;SDS011;8594;52.052;8.354;2022-11-18T07:21:35;51.73;;;21.97;;
16954;SDS011;8594;52.052;8.354;2022-11-18T07:24:03;57.50;;;21.57;;
16954;SDS011;8594;52.052;8.354;2022-11-18T07:26:33;63.60;;;21.73;;
16954;SDS011;8594;52.052;8.354;2022-11-18T07:29:01;60.30;;;23.63;;
16954;SDS011;8594;52.052;8.354;2022-11-18T07:31:28;69.20;;;23.37;;
16954;SDS011;8594;52.052;8.354;2022-11-18T07:33:55;61.13;;;22.80;;
16954;SDS011;8594;52.052;8.354;2022-11-18T07:36:25;59.90;;;21.97;;
16954;SDS011;8594;52.052;8.354;2022-11-18T07:38:54;59.43;;;23.20;;
16954;SDS011;8594;52.052;8.354;2022-11-18T07:41:24;56.93;;;22.60;;
16954;SDS011;8594;52.052;8.354;2022-11-18T07:43:53;56.53;;;22.80;;
16954;SDS011;8594;52.052;8.354;2022-11-18T07:46:23;57.67;;;21.10;;
16954;SDS011;8594;52.052;8.354;2022-11-18T07:48:52;57.70;;;21.97;;
16954;SDS011;8594;52.052;8.354;2022-11-18T07:51:22;58.37;;;23.00;;
16954;SDS011;8594;52.052;8.354;2022-11-18T07:53:52;50.17;;;21.23;;
16954;SDS011;8594;52.052;8.354;2022-11-18T07:56:20;59.50;;;22.47;;
16954;SDS011;8594;52.052;8.354;2022-11-18T07:58:51;48.50;;;19.97;;
16954;SDS011;8594;52.052;8.354;2022-11-18T08:01:20;54.40;;;20.83;;
16954;SDS011;8594;52.052;8.354;2022-11-18T08:03:52;58.33;;;21.33;;
16954;SDS011;8594;52.052;8.354;2022-11-18T08:06:20;53.60;;;21.37;;
16954;SDS011;8594;52.052;8.354;2022-11-18T08:08:48;49.57;;;20.30;;
16954;SDS011;8594;52.052;8.354;2022-11-18T08:11:16;43.17;;;19.50;;
16954;SDS011;8594;52.052;8.354;2022-11-18T08:13:45;48.37;;;20.30;;
16954;SDS011;8594;52.052;8.354;2022-11-18T08:16:12;48.00;;;19.73;;
16954;SDS011;8594;52.052;8.354;2022-11-18T08:18:41;51.80;;;20.00;;
16954;SDS011;8594;52.052;8.354;2022-11-18T08:21:09;47.47;;;19.07;;
16954;SDS011;8594;52.052;8.354;2022-11-18T08:23:36;54.33;;;20.17;;
16954;SDS011;8594;52.052;8.354;2022-11-18T08:26:06;48.43;;;19.97;;
16954;SDS011;8594;52.052;8.354;2022-11-18T08:28:35;48.17;;;19.20;;
16954;SDS011;8594;52.052;8.354;2022-11-18T08:31:07;51.03;;;18.67;;
16954;SDS011;8594;52.052;8.354;2022-11-18T08:33:36;45.70;;;19.10;;
16954;SDS011;8594;52.052;8.354;2022-11-18T08:36:06;43.07;;;19.57;;
16954;SDS011;8594;52.052;8.354;2022-11-18T08:38:35;40.97;;;18.27;;
16954;SDS011;8594;52.052;8.354;2022-11-18T08:41:02;42.93;;;18.67;;
16954;SDS011;8594;52.052;8.354;2022-11-18T08:43:32;36.87;;;17.50;;
16954;SDS011;8594;52.052;8.354;2022-11-18T08:46:00;37.40;;;16.97;;
16954;SDS011;8594;52.052;8.354;2022-11-18T08:48:27;45.37;;;19.03;;
16954;SDS011;8594;52.052;8.354;2022-11-18T08:50:55;41.70;;;17.77;;
16954;SDS011;8594;52.052;8.354;2022-11-18T08:53:23;40.47;;;17.13;;
16954;SDS011;8594;52.052;8.354;2022-11-18T08:55:53;32.67;;;15.93;;
16954;SDS011;8594;52.052;8.354;2022-11-18T08:58:21;37.70;;;17.23;;
16954;SDS011;8594;52.052;8.354;2022-11-18T09:00:50;40.53;;;17.43;;
16954;SDS011;8594;52.052;8.354;2022-11-18T09:03:17;40.77;;;18.27;;
16954;SDS011;8594;52.052;8.354;2022-11-18T09:05:44;43.33;;;18.70;;
16954;SDS011;8594;52.052;8.354;2022-11-18T09:08:12;49.93;;;20.07;;
16954;SDS011;8594;52.052;8.354;2022-11-18T09:10:40;43.03;;;18.33;;
16954;SDS011;8594;52.052;8.354;2022-11-18T09:13:07;44.53;;;18.77;;
16954;SDS011;8594;52.052;8.354;2022-11-18T09:15:34;48.40;;;18.20;;
16954;SDS011;8594;52.052;8.354;2022-11-18T09:18:03;53.77;;;20.23;;
16954;SDS011;8594;52.052;8.354;2022-11-18T09:20:30;42.40;;;18.73;;
16954;SDS011;8594;52.052;8.354;2022-11-18T09:22:57;44.30;;;18.70;;
16954;SDS011;8594;52.052;8.354;2022-11-18T09:25:24;46.93;;;18.43;;
16954;SDS011;8594;52.052;8.354;2022-11-18T09:27:51;48.60;;;19.00;;
16954;SDS011;8594;52.052;8.354;2022-11-18T09:30:19;44.83;;;19.30;;
16954;SDS011;8594;52.052;8.354;2022-11-18T09:32:46;46.90;;;18.07;;
16954;SDS011;8594;52.052;8.354;2022-11-18T09:35:15;38.33;;;17.47;;
16954;SDS011;8594;52.052;8.354;2022-11-18T09:37:42;44.90;;;17.93;;
16954;SDS011;8594;52.052;8.354;2022-11-18T09:40:12;48.57;;;17.07;;
16954;SDS011;8594;52.052;8.354;2022-11-18T09:42:45;47.40;;;18.33;;
16954;SDS011;8594;52.052;8.354;2022-11-18T09:45:24;39.93;;;18.43;;
16954;SDS011;8594;52.052;8.354;2022-11-18T09:47:59;48.90;;;18.07;;
16954;SDS011;8594;52.052;8.354;2022-11-18T09:50:40;45.13;;;16.30;;
16954;SDS011;8594;52.052;8.354;2022-11-18T09:53:09;52.10;;;18.17;;
16954;SDS011;8594;52.052;8.354;2022-11-18T09:55:44;42.13;;;17.20;;
16954;SDS011;8594;52.052;8.354;2022-11-18T09:58:14;44.23;;;18.00;;
16954;SDS011;8594;52.052;8.354;2022-11-18T10:00:57;44.07;;;17.87;;
16954;SDS011;8594;52.052;8.354;2022-11-18T10:03:26;44.83;;;17.20;;
16954;SDS011;8594;52.052;8.354;2022-11-18T10:05:58;39.47;;;17.73;;
16954;SDS011;8594;52.052;8.354;2022-11-18T10:08:32;41.97;;;19.23;;
16954;SDS011;8594;52.052;8.354;2022-11-18T10:11:10;40.10;;;18.53;;
16954;SDS011;8594;52.052;8.354;2022-11-18T10:13:47;44.53;;;18.77;;
16954;SDS011;8594;52.052;8.354;2022-11-18T10:16:31;33.20;;;16.03;;
16954;SDS011;8594;52.052;8.354;2022-11-18T10:19:16;37.73;;;16.30;;
16954;SDS011;8594;52.052;8.354;2022-11-18T10:21:58;39.37;;;17.87;;
16954;SDS011;8594;52.052;8.354;2022-11-18T10:24:44;40.37;;;17.20;;
16954;SDS011;8594;52.052;8.354;2022-11-18T10:27:16;37.57;;;16.67;;
16954;SDS011;8594;52.052;8.354;2022-11-18T10:29:44;38.47;;;16.30;;
16954;SDS011;8594;52.052;8.354;2022-11-18T10:32:20;40.97;;;16.90;;
16954;SDS011;8594;52.052;8.354;2022-11-18T10:34:48;36.13;;;16.13;;
16954;SDS011;8594;52.052;8.354;2022-11-18T10:37:23;38.60;;;17.70;;
16954;SDS011;8594;52.052;8.354;2022-11-18T10:39:54;42.73;;;17.90;;
16954;SDS011;8594;52.052;8.354;2022-11-18T10:42:24;36.33;;;18.63;;
16954;SDS011;8594;52.052;8.354;2022-11-18T10:44:55;37.37;;;16.87;;
16954;SDS011;8594;52.052;8.354;2022-11-18T10:47:41;37.00;;;15.63;;
16954;SDS011;8594;52.052;8.354;2022-11-18T10:52:57;30.67;;;14.27;;
16954;SDS011;8594;52.052;8.354;2022-11-18T10:55:25;32.87;;;14.70;;
16954;SDS011;8594;52.052;8.354;2022-11-18T10:57:53;30.53;;;14.10;;
16954;SDS011;8594;52.052;8.354;2022-11-18T11:00:35;33.77;;;14.67;;
16954;SDS011;8594;52.052;8.354;2022-11-18T11:03:25;28.87;;;13.10;;
16954;SDS011;8594;52.052;8.354;2022-11-18T11:09:06;30.20;;;13.67;;
16954;SDS011;8594;52.052;8.354;2022-11-18T11:11:55;34.57;;;14.20;;
16954;SDS011;8594;52.052;8.354;2022-11-18T11:14:33;25.03;;;12.47;;
16954;SDS011;8594;52.052;8.354;2022-11-18T11:17:16;30.47;;;14.00;;
16954;SDS011;8594;52.052;8.354;2022-11-18T11:19:49;33.97;;;15.00;;
16954;SDS011;8594;52.052;8.354;2022-11-18T11:22:20;29.73;;;14.27;;
16954;SDS011;8594;52.052;8.354;2022-11-18T11:24:49;34.50;;;15.03;;
16954;SDS011;8594;52.052;8.354;2022-11-18T11:27:30;30.40;;;13.80;;
16954;SDS011;8594;52.052;8.354;2022-11-18T11:30:12;27.40;;;13.20;;
16954;SDS011;8594;52.052;8.354;2022-11-18T11:32:53;31.03;;;15.40;;
16954;SDS011;8594;52.052;8.354;2022-11-18T11:35:41;35.37;;;14.77;;
16954;SDS011;8594;52.052;8.354;2022-11-18T11:38:19;31.03;;;14.63;;
16954;SDS011;8594;52.052;8.354;2022-11-18T11:41:08;29.20;;;14.67;;
16954;SDS011;8594;52.052;8.354;2022-11-18T11:43:50;30.67;;;14.93;;
16954;SDS011;8594;52.052;8.354;2022-11-18T11:46:44;27.93;;;13.83;;
16954;SDS011;8594;52.052;8.354;2022-11-18T11:49:49;32.77;;;14.30;;
16954;SDS011;8594;52.052;8.354;2022-11-18T11:52:26;30.70;;;15.27;;
16954;SDS011;8594;52.052;8.354;2022-11-18T11:55:10;25.13;;;12.63;;
16954;SDS011;8594;52.052;8.354;2022-11-18T11:57:52;30.50;;;14.67;;
16954;SDS011;8594;52.052;8.354;2022-11-18T12:00:41;28.63;;;14.37;;
16954;SDS011;8594;52.052;8.354;2022-11-18T12:03:32;29.53;;;14.07;;
16954;SDS011;8594;52.052;8.354;2022-11-18T12:06:10;27.87;;;13.33;;
16954;SDS011;8594;52.052;8.354;2022-11-18T12:08:46;28.43;;;14.23;;
16954;SDS011;8594;52.052;8.354;2022-11-18T12:11:26;32.70;;;14.13;;
16954;SDS011;8594;52.052;8.354;2022-11-18T12:14:09;25.17;;;13.07;;
16954;SDS011;8594;52.052;8.354;2022-11-18T12:16:47;27.23;;;12.87;;
16954;SDS011;8594;52.052;8.354;2022-11-18T12:19:21;28.73;;;13.63;;
16954;SDS011;8594;52.052;8.354;2022-11-18T12:21:53;28.97;;;13.77;;
16954;SDS011;8594;52.052;8.354;2022-11-18T12:24:31;28.07;;;14.00;;
16954;SDS011;8594;52.052;8.354;2022-11-18T12:27:02;29.10;;;13.27;;
16954;SDS011;8594;52.052;8.354;2022-11-18T12:32:33;29.43;;;14.17;;
16954;SDS011;8594;52.052;8.354;2022-11-18T12:35:20;32.37;;;15.07;;
16954;SDS011;8594;52.052;8.354;2022-11-18T12:37:59;32.50;;;14.53;;
16954;SDS011;8594;52.052;8.354;2022-11-18T12:40:35;32.33;;;15.23;;
16954;SDS011;8594;52.052;8.354;2022-11-18T12:43:10;37.80;;;15.27;;
16954;SDS011;8594;52.052;8.354;2022-11-18T12:52:47;35.57;;;15.80;;
16954;SDS011;8594;52.052;8.354;2022-11-18T12:55:23;35.43;;;15.03;;
16954;SDS011;8594;52.052;8.354;2022-11-18T12:57:56;35.23;;;15.53;;
16954;SDS011;8594;52.052;8.354;2022-11-18T13:00:31;28.83;;;13.60;;
16954;SDS011;8594;52.052;8.354;2022-11-18T13:03:21;32.50;;;16.23;;
16954;SDS011;8594;52.052;8.354;2022-11-18T13:05:57;32.13;;;15.60;;
16954;SDS011;8594;52.052;8.354;2022-11-18T13:08:27;31.80;;;14.40;;
16954;SDS011;8594;52.052;8.354;2022-11-18T13:10:55;33.07;;;15.63;;
16954;SDS011;8594;52.052;8.354;2022-11-18T13:13:50;30.77;;;13.90;;
16954;SDS011;8594;52.052;8.354;2022-11-18T13:16:39;30.33;;;14.33;;
16954;SDS011;8594;52.052;8.354;2022-11-18T13:19:38;33.70;;;15.43;;
16954;SDS011;8594;52.052;8.354;2022-11-18T13:22:12;32.87;;;15.73;;
16954;SDS011;8594;52.052;8.354;2022-11-18T13:25:00;34.07;;;15.77;;
16954;SDS011;8594;52.052;8.354;2022-11-18T13:27:30;30.80;;;14.40;;
16954;SDS011;8594;52.052;8.354;2022-11-18T13:30:12;28.77;;;15.00;;
16954;SDS011;8594;52.052;8.354;2022-11-18T13:32:41;32.00;;;15.07;;
16954;SDS011;8594;52.052;8.354;2022-11-18T13:35:13;32.17;;;15.97;;
16954;SDS011;8594;52.052;8.354;2022-11-18T13:37:47;31.60;;;15.67;;
16954;SDS011;8594;52.052;8.354;2022-11-18T13:40:18;33.33;;;15.03;;
16954;SDS011;8594;52.052;8.354;2022-11-18T13:42:48;33.27;;;15.37;;
16954;SDS011;8594;52.052;8.354;2022-11-18T13:45:15;34.40;;;14.90;;
16954;SDS011;8594;52.052;8.354;2022-11-18T13:47:44;30.00;;;15.23;;
16954;SDS011;8594;52.052;8.354;2022-11-18T13:50:17;32.17;;;15.20;;
16954;SDS011;8594;52.052;8.354;2022-11-18T13:52:59;28.80;;;13.63;;
16954;SDS011;8594;52.052;8.354;2022-11-18T13:55:35;29.60;;;13.57;;
16954;SDS011;8594;52.052;8.354;2022-11-18T13:58:19;31.20;;;15.13;;
16954;SDS011;8594;52.052;8.354;2022-11-18T14:01:00;33.50;;;14.83;;
16954;SDS011;8594;52.052;8.354;2022-11-18T14:03:31;33.87;;;14.93;;
16954;SDS011;8594;52.052;8.354;2022-11-18T14:06:02;33.80;;;14.37;;
16954;SDS011;8594;52.052;8.354;2022-11-18T14:08:30;30.53;;;14.53;;
16954;SDS011;8594;52.052;8.354;2022-11-18T14:10:59;36.20;;;16.10;;
16954;SDS011;8594;52.052;8.354;2022-11-18T14:13:27;34.87;;;16.67;;
16954;SDS011;8594;52.052;8.354;2022-11-18T14:15:56;35.27;;;16.43;;
16954;SDS011;8594;52.052;8.354;2022-11-18T14:18:28;34.57;;;15.33;;
16954;SDS011;8594;52.052;8.354;2022-11-18T14:20:58;35.77;;;17.03;;
16954;SDS011;8594;52.052;8.354;2022-11-18T14:23:29;36.53;;;16.90;;
16954;SDS011;8594;52.052;8.354;2022-11-18T14:26:00;37.60;;;15.90;;
16954;SDS011;8594;52.052;8.354;2022-11-18T14:28:30;37.43;;;16.33;;
16954;SDS011;8594;52.052;8.354;2022-11-18T14:31:04;34.47;;;16.37;;
16954;SDS011;8594;52.052;8.354;2022-11-18T14:34:02;31.93;;;15.13;;
16954;SDS011;8594;52.052;8.354;2022-11-18T14:36:38;33.40;;;16.27;;
16954;SDS011;8594;52.052;8.354;2022-11-18T14:39:12;36.40;;;16.77;;
16954;SDS011;8594;52.052;8.354;2022-11-18T14:41:49;34.43;;;15.47;;
16954;SDS011;8594;52.052;8.354;2022-11-18T14:44:17;30.47;;;15.23;;
16954;SDS011;8594;52.052;8.354;2022-11-18T14:46:46;32.50;;;15.33;;
16954;SDS011;8594;52.052;8.354;2022-11-18T14:49:18;30.23;;;15.23;;
16954;SDS011;8594;52.052;8.354;2022-11-18T14:51:48;31.47;;;14.50;;
16954;SDS011;8594;52.052;8.354;2022-11-18T14:54:18;27.90;;;13.93;;
16954;SDS011;8594;52.052;8.354;2022-11-18T14:56:48;28.83;;;15.00;;
16954;SDS011;8594;52.052;8.354;2022-11-18T14:59:16;32.60;;;15.00;;
16954;SDS011;8594;52.052;8.354;2022-11-18T15:01:46;35.63;;;15.67;;
16954;SDS011;8594;52.052;8.354;2022-11-18T15:04:13;26.83;;;13.40;;
16954;SDS011;8594;52.052;8.354;2022-11-18T15:06:41;28.87;;;14.80;;
16954;SDS011;8594;52.052;8.354;2022-11-18T15:09:10;27.10;;;13.83;;
16954;SDS011;8594;52.052;8.354;2022-11-18T15:11:39;28.87;;;13.53;;
16954;SDS011;8594;52.052;8.354;2022-11-18T15:14:06;27.20;;;13.10;;
16954;SDS011;8594;52.052;8.354;2022-11-18T15:16:33;26.40;;;14.83;;
16954;SDS011;8594;52.052;8.354;2022-11-18T15:19:01;27.40;;;13.10;;
16954;SDS011;8594;52.052;8.354;2022-11-18T15:21:31;28.87;;;14.60;;